sensor_id;sensor_type;location;lat;lon;timestamp;P1;durP1;ratioP1;P2;durP2;ratioP2
42670;SDS011;28283;55.426;37.756;2022-10-24T00:02:13;7.53;;;3.97;;
42670;SDS011;28283;55.426;37.756;2022-10-24T00:07:14;8.10;;;5.87;;
42670;SDS011;28283;55.426;37.756;2022-10-24T00:12:16;11.65;;;7.03;;
42670;SDS011;28283;55.426;37.756;2022-10-24T00:17:18;8.85;;;4.65;;
42670;SDS011;28283;55.426;37.756;2022-10-24T00:22:19;5.67;;;4.03;;
42670;SDS011;28283;55.426;37.756;2022-10-24T00:27:20;4.95;;;2.97;;
42670;SDS011;28283;55.426;37.756;2022-10-24T00:32:21;6.68;;;3.55;;
42670;SDS011;28283;55.426;37.756;2022-10-24T00:37:21;9.37;;;5.63;;
42670;SDS011;28283;55.426;37.756;2022-10-24T00:42:22;10.37;;;7.77;;
42670;SDS011;28283;55.426;37.756;2022-10-24T00:47:24;4.65;;;3.83;;
42670;SDS011;28283;55.426;37.756;2022-10-24T00:52:30;7.65;;;4.20;;
42670;SDS011;28283;55.426;37.756;2022-10-24T00:57:35;6.05;;;3.28;;
42670;SDS011;28283;55.426;37.756;2022-10-24T01:02:39;6.45;;;3.53;;
42670;SDS011;28283;55.426;37.756;2022-10-24T01:13:40;9.32;;;3.63;;
42670;SDS011;28283;55.426;37.756;2022-10-24T01:18:53;4.50;;;3.25;;
42670;SDS011;28283;55.426;37.756;2022-10-24T01:29:13;6.47;;;3.85;;
42670;SDS011;28283;55.426;37.756;2022-10-24T01:34:20;6.32;;;3.90;;
42670;SDS011;28283;55.426;37.756;2022-10-24T01:39:26;12.73;;;6.75;;
42670;SDS011;28283;55.426;37.756;2022-10-24T01:44:41;10.98;;;6.38;;
42670;SDS011;28283;55.426;37.756;2022-10-24T01:49:48;9.27;;;5.13;;
42670;SDS011;28283;55.426;37.756;2022-10-24T01:55:05;9.98;;;5.70;;
42670;SDS011;28283;55.426;37.756;2022-10-24T02:00:07;14.73;;;7.93;;
42670;SDS011;28283;55.426;37.756;2022-10-24T02:05:16;9.45;;;5.22;;
42670;SDS011;28283;55.426;37.756;2022-10-24T02:10:22;8.82;;;4.50;;
42670;SDS011;28283;55.426;37.756;2022-10-24T02:15:32;4.22;;;3.45;;
42670;SDS011;28283;55.426;37.756;2022-10-24T02:26:48;11.30;;;7.93;;
42670;SDS011;28283;55.426;37.756;2022-10-24T02:31:54;12.60;;;7.47;;
42670;SDS011;28283;55.426;37.756;2022-10-24T02:36:57;11.10;;;7.13;;
42670;SDS011;28283;55.426;37.756;2022-10-24T02:41:59;12.55;;;7.05;;
42670;SDS011;28283;55.426;37.756;2022-10-24T02:47:03;12.30;;;6.85;;
42670;SDS011;28283;55.426;37.756;2022-10-24T02:52:05;18.83;;;7.53;;
42670;SDS011;28283;55.426;37.756;2022-10-24T02:57:06;13.43;;;6.40;;
42670;SDS011;28283;55.426;37.756;2022-10-24T03:02:07;14.00;;;7.60;;
42670;SDS011;28283;55.426;37.756;2022-10-24T03:07:08;10.35;;;6.47;;
42670;SDS011;28283;55.426;37.756;2022-10-24T03:12:10;5.93;;;4.20;;
42670;SDS011;28283;55.426;37.756;2022-10-24T03:17:14;14.63;;;8.43;;
42670;SDS011;28283;55.426;37.756;2022-10-24T03:22:15;13.85;;;8.10;;
42670;SDS011;28283;55.426;37.756;2022-10-24T03:27:15;16.00;;;8.43;;
42670;SDS011;28283;55.426;37.756;2022-10-24T03:32:16;13.88;;;6.63;;
42670;SDS011;28283;55.426;37.756;2022-10-24T03:37:17;9.30;;;5.90;;
42670;SDS011;28283;55.426;37.756;2022-10-24T03:42:18;9.43;;;5.85;;
42670;SDS011;28283;55.426;37.756;2022-10-24T03:47:19;12.38;;;5.10;;
42670;SDS011;28283;55.426;37.756;2022-10-24T03:52:20;9.27;;;5.97;;
42670;SDS011;28283;55.426;37.756;2022-10-24T03:57:20;9.53;;;6.60;;
42670;SDS011;28283;55.426;37.756;2022-10-24T04:02:21;7.47;;;5.38;;
42670;SDS011;28283;55.426;37.756;2022-10-24T04:07:22;12.27;;;7.78;;
42670;SDS011;28283;55.426;37.756;2022-10-24T04:12:23;8.60;;;5.40;;
42670;SDS011;28283;55.426;37.756;2022-10-24T04:17:24;8.70;;;4.97;;
42670;SDS011;28283;55.426;37.756;2022-10-24T04:22:25;11.77;;;6.13;;
42670;SDS011;28283;55.426;37.756;2022-10-24T04:27:26;7.65;;;4.35;;
42670;SDS011;28283;55.426;37.756;2022-10-24T04:32:27;6.03;;;4.63;;
42670;SDS011;28283;55.426;37.756;2022-10-24T04:37:28;9.23;;;5.82;;
42670;SDS011;28283;55.426;37.756;2022-10-24T04:42:29;8.38;;;3.92;;
42670;SDS011;28283;55.426;37.756;2022-10-24T04:47:29;8.05;;;3.92;;
42670;SDS011;28283;55.426;37.756;2022-10-24T04:52:30;14.93;;;5.25;;
42670;SDS011;28283;55.426;37.756;2022-10-24T04:57:31;7.22;;;3.40;;
42670;SDS011;28283;55.426;37.756;2022-10-24T05:02:32;8.13;;;5.67;;
42670;SDS011;28283;55.426;37.756;2022-10-24T05:07:33;7.45;;;4.30;;
42670;SDS011;28283;55.426;37.756;2022-10-24T05:12:33;9.23;;;5.50;;
42670;SDS011;28283;55.426;37.756;2022-10-24T05:17:34;9.30;;;5.13;;
42670;SDS011;28283;55.426;37.756;2022-10-24T05:22:35;7.72;;;5.13;;
42670;SDS011;28283;55.426;37.756;2022-10-24T05:27:36;7.28;;;4.55;;
42670;SDS011;28283;55.426;37.756;2022-10-24T05:32:37;8.38;;;5.25;;
42670;SDS011;28283;55.426;37.756;2022-10-24T05:37:38;5.93;;;3.05;;
42670;SDS011;28283;55.426;37.756;2022-10-24T05:42:39;7.55;;;4.40;;
42670;SDS011;28283;55.426;37.756;2022-10-24T05:47:40;9.73;;;3.97;;
42670;SDS011;28283;55.426;37.756;2022-10-24T05:52:41;8.20;;;3.67;;
42670;SDS011;28283;55.426;37.756;2022-10-24T05:57:42;4.95;;;4.15;;
42670;SDS011;28283;55.426;37.756;2022-10-24T06:02:42;3.57;;;2.47;;
42670;SDS011;28283;55.426;37.756;2022-10-24T06:07:44;2.35;;;1.65;;
42670;SDS011;28283;55.426;37.756;2022-10-24T06:17:46;6.50;;;3.85;;
42670;SDS011;28283;55.426;37.756;2022-10-24T06:22:48;7.72;;;4.57;;
42670;SDS011;28283;55.426;37.756;2022-10-24T06:27:49;4.57;;;2.78;;
42670;SDS011;28283;55.426;37.756;2022-10-24T06:32:50;5.25;;;2.58;;
42670;SDS011;28283;55.426;37.756;2022-10-24T06:37:51;3.88;;;3.15;;
42670;SDS011;28283;55.426;37.756;2022-10-24T06:42:52;3.37;;;2.30;;
42670;SDS011;28283;55.426;37.756;2022-10-24T06:47:52;3.37;;;3.07;;
42670;SDS011;28283;55.426;37.756;2022-10-24T06:52:53;2.73;;;2.07;;
42670;SDS011;28283;55.426;37.756;2022-10-24T06:57:54;5.78;;;3.45;;
42670;SDS011;28283;55.426;37.756;2022-10-24T07:02:54;7.57;;;4.67;;
42670;SDS011;28283;55.426;37.756;2022-10-24T07:07:55;4.93;;;2.80;;
42670;SDS011;28283;55.426;37.756;2022-10-24T07:12:56;4.50;;;2.30;;
42670;SDS011;28283;55.426;37.756;2022-10-24T07:17:56;7.33;;;2.97;;
42670;SDS011;28283;55.426;37.756;2022-10-24T07:22:57;3.08;;;2.70;;
42670;SDS011;28283;55.426;37.756;2022-10-24T07:27:58;3.73;;;2.97;;
42670;SDS011;28283;55.426;37.756;2022-10-24T07:32:58;9.47;;;4.00;;
42670;SDS011;28283;55.426;37.756;2022-10-24T07:37:59;5.18;;;3.33;;
42670;SDS011;28283;55.426;37.756;2022-10-24T07:43:00;5.07;;;3.50;;
42670;SDS011;28283;55.426;37.756;2022-10-24T07:48:07;7.90;;;2.45;;
42670;SDS011;28283;55.426;37.756;2022-10-24T07:53:10;4.72;;;2.63;;
42670;SDS011;28283;55.426;37.756;2022-10-24T07:58:11;4.93;;;3.28;;
42670;SDS011;28283;55.426;37.756;2022-10-24T08:03:13;5.22;;;3.40;;
42670;SDS011;28283;55.426;37.756;2022-10-24T08:08:13;2.80;;;2.50;;
42670;SDS011;28283;55.426;37.756;2022-10-24T08:13:14;7.67;;;3.17;;
42670;SDS011;28283;55.426;37.756;2022-10-24T08:18:15;5.55;;;3.95;;
42670;SDS011;28283;55.426;37.756;2022-10-24T08:23:16;7.45;;;4.78;;
42670;SDS011;28283;55.426;37.756;2022-10-24T08:28:18;5.53;;;3.42;;
42670;SDS011;28283;55.426;37.756;2022-10-24T08:33:19;5.00;;;2.67;;
42670;SDS011;28283;55.426;37.756;2022-10-24T08:38:24;9.90;;;2.70;;
42670;SDS011;28283;55.426;37.756;2022-10-24T08:43:25;13.50;;;6.18;;
42670;SDS011;28283;55.426;37.756;2022-10-24T08:48:31;9.35;;;4.55;;
42670;SDS011;28283;55.426;37.756;2022-10-24T08:53:41;8.82;;;4.32;;
42670;SDS011;28283;55.426;37.756;2022-10-24T08:58:46;6.43;;;3.05;;
42670;SDS011;28283;55.426;37.756;2022-10-24T09:03:48;6.75;;;3.10;;
42670;SDS011;28283;55.426;37.756;2022-10-24T09:08:52;4.47;;;2.58;;
42670;SDS011;28283;55.426;37.756;2022-10-24T09:13:56;2.90;;;2.55;;
42670;SDS011;28283;55.426;37.756;2022-10-24T09:18:59;3.60;;;2.55;;
42670;SDS011;28283;55.426;37.756;2022-10-24T09:24:01;3.63;;;3.10;;
42670;SDS011;28283;55.426;37.756;2022-10-24T09:29:01;3.58;;;3.25;;
42670;SDS011;28283;55.426;37.756;2022-10-24T09:34:03;3.80;;;3.10;;
42670;SDS011;28283;55.426;37.756;2022-10-24T09:39:46;7.28;;;4.68;;
42670;SDS011;28283;55.426;37.756;2022-10-24T09:44:38;3.55;;;2.95;;
42670;SDS011;28283;55.426;37.756;2022-10-24T09:49:43;2.00;;;1.80;;
42670;SDS011;28283;55.426;37.756;2022-10-24T09:54:45;4.82;;;2.05;;
42670;SDS011;28283;55.426;37.756;2022-10-24T09:59:47;3.38;;;2.35;;
42670;SDS011;28283;55.426;37.756;2022-10-24T10:20:45;1.75;;;1.15;;
42670;SDS011;28283;55.426;37.756;2022-10-24T10:26:42;2.70;;;2.05;;
42670;SDS011;28283;55.426;37.756;2022-10-24T10:31:32;3.67;;;1.60;;
42670;SDS011;28283;55.426;37.756;2022-10-24T10:47:30;2.55;;;1.35;;
42670;SDS011;28283;55.426;37.756;2022-10-24T10:52:54;2.15;;;1.00;;
42670;SDS011;28283;55.426;37.756;2022-10-24T10:58:15;3.70;;;1.38;;
42670;SDS011;28283;55.426;37.756;2022-10-24T11:13:42;4.03;;;1.90;;
42670;SDS011;28283;55.426;37.756;2022-10-24T11:18:50;1.50;;;0.90;;
42670;SDS011;28283;55.426;37.756;2022-10-24T11:23:56;2.22;;;1.30;;
42670;SDS011;28283;55.426;37.756;2022-10-24T11:29:15;2.78;;;1.38;;
42670;SDS011;28283;55.426;37.756;2022-10-24T11:34:45;2.13;;;1.60;;
42670;SDS011;28283;55.426;37.756;2022-10-24T11:39:54;0.85;;;0.85;;
42670;SDS011;28283;55.426;37.756;2022-10-24T11:55:29;1.88;;;1.15;;
42670;SDS011;28283;55.426;37.756;2022-10-24T12:01:26;1.58;;;0.98;;
42670;SDS011;28283;55.426;37.756;2022-10-24T12:21:46;2.47;;;0.60;;
42670;SDS011;28283;55.426;37.756;2022-10-24T12:26:58;0.98;;;0.65;;
42670;SDS011;28283;55.426;37.756;2022-10-24T12:47:26;1.45;;;0.68;;
42670;SDS011;28283;55.426;37.756;2022-10-24T12:57:35;1.30;;;0.70;;
42670;SDS011;28283;55.426;37.756;2022-10-24T13:08:30;0.68;;;0.68;;
42670;SDS011;28283;55.426;37.756;2022-10-24T13:23:52;3.33;;;1.20;;
42670;SDS011;28283;55.426;37.756;2022-10-24T13:34:24;7.27;;;0.70;;
42670;SDS011;28283;55.426;37.756;2022-10-24T13:39:30;3.45;;;0.90;;
42670;SDS011;28283;55.426;37.756;2022-10-24T13:44:42;5.50;;;2.13;;
42670;SDS011;28283;55.426;37.756;2022-10-24T13:50:12;3.50;;;2.85;;
42670;SDS011;28283;55.426;37.756;2022-10-24T13:55:40;2.92;;;1.50;;
42670;SDS011;28283;55.426;37.756;2022-10-24T14:00:42;3.40;;;0.93;;
42670;SDS011;28283;55.426;37.756;2022-10-24T14:05:53;1.30;;;1.20;;
42670;SDS011;28283;55.426;37.756;2022-10-24T14:11:05;3.42;;;2.63;;
42670;SDS011;28283;55.426;37.756;2022-10-24T14:16:08;2.58;;;1.73;;
42670;SDS011;28283;55.426;37.756;2022-10-24T14:21:20;5.63;;;2.20;;
42670;SDS011;28283;55.426;37.756;2022-10-24T14:26:21;7.20;;;1.95;;
42670;SDS011;28283;55.426;37.756;2022-10-24T14:31:24;5.30;;;1.60;;
42670;SDS011;28283;55.426;37.756;2022-10-24T14:36:30;4.07;;;2.22;;
42670;SDS011;28283;55.426;37.756;2022-10-24T14:41:38;8.93;;;3.05;;
42670;SDS011;28283;55.426;37.756;2022-10-24T14:46:42;8.95;;;3.17;;
42670;SDS011;28283;55.426;37.756;2022-10-24T14:51:45;3.90;;;1.80;;
42670;SDS011;28283;55.426;37.756;2022-10-24T14:56:48;9.48;;;2.83;;
42670;SDS011;28283;55.426;37.756;2022-10-24T15:01:54;10.40;;;5.70;;
42670;SDS011;28283;55.426;37.756;2022-10-24T15:06:57;9.82;;;3.40;;
42670;SDS011;28283;55.426;37.756;2022-10-24T15:12:11;9.85;;;4.85;;
42670;SDS011;28283;55.426;37.756;2022-10-24T15:22:37;11.35;;;3.50;;
42670;SDS011;28283;55.426;37.756;2022-10-24T15:27:41;9.37;;;4.63;;
42670;SDS011;28283;55.426;37.756;2022-10-24T15:32:44;16.33;;;6.60;;
42670;SDS011;28283;55.426;37.756;2022-10-24T15:37:56;19.92;;;8.95;;
42670;SDS011;28283;55.426;37.756;2022-10-24T15:42:58;19.13;;;7.68;;
42670;SDS011;28283;55.426;37.756;2022-10-24T15:47:59;19.65;;;7.50;;
42670;SDS011;28283;55.426;37.756;2022-10-24T15:53:01;9.65;;;4.60;;
42670;SDS011;28283;55.426;37.756;2022-10-24T15:58:08;15.50;;;6.53;;
42670;SDS011;28283;55.426;37.756;2022-10-24T16:03:16;21.60;;;6.75;;
42670;SDS011;28283;55.426;37.756;2022-10-24T16:08:20;27.98;;;6.32;;
42670;SDS011;28283;55.426;37.756;2022-10-24T16:13:22;20.17;;;6.65;;
42670;SDS011;28283;55.426;37.756;2022-10-24T16:18:23;16.03;;;5.60;;
42670;SDS011;28283;55.426;37.756;2022-10-24T16:23:24;17.57;;;6.77;;
42670;SDS011;28283;55.426;37.756;2022-10-24T16:28:25;18.83;;;6.80;;
42670;SDS011;28283;55.426;37.756;2022-10-24T16:33:27;14.85;;;5.57;;
42670;SDS011;28283;55.426;37.756;2022-10-24T16:38:28;27.23;;;7.20;;
42670;SDS011;28283;55.426;37.756;2022-10-24T16:43:30;16.90;;;7.88;;
42670;SDS011;28283;55.426;37.756;2022-10-24T16:48:31;20.23;;;7.85;;
42670;SDS011;28283;55.426;37.756;2022-10-24T16:53:33;21.67;;;6.10;;
42670;SDS011;28283;55.426;37.756;2022-10-24T16:58:34;12.50;;;4.95;;
42670;SDS011;28283;55.426;37.756;2022-10-24T17:03:34;12.40;;;5.75;;
42670;SDS011;28283;55.426;37.756;2022-10-24T17:08:36;13.93;;;4.07;;
42670;SDS011;28283;55.426;37.756;2022-10-24T17:13:36;12.93;;;5.65;;
42670;SDS011;28283;55.426;37.756;2022-10-24T17:18:37;16.40;;;6.43;;
42670;SDS011;28283;55.426;37.756;2022-10-24T17:23:38;14.73;;;5.90;;
42670;SDS011;28283;55.426;37.756;2022-10-24T17:28:39;13.05;;;5.72;;
42670;SDS011;28283;55.426;37.756;2022-10-24T17:33:40;11.02;;;4.50;;
42670;SDS011;28283;55.426;37.756;2022-10-24T17:38:49;9.40;;;4.85;;
42670;SDS011;28283;55.426;37.756;2022-10-24T17:43:53;11.48;;;4.82;;
42670;SDS011;28283;55.426;37.756;2022-10-24T17:48:54;9.52;;;4.50;;
42670;SDS011;28283;55.426;37.756;2022-10-24T17:53:57;10.98;;;5.85;;
42670;SDS011;28283;55.426;37.756;2022-10-24T17:58:58;10.35;;;5.55;;
42670;SDS011;28283;55.426;37.756;2022-10-24T18:03:58;10.23;;;5.77;;
42670;SDS011;28283;55.426;37.756;2022-10-24T18:08:59;12.83;;;6.33;;
42670;SDS011;28283;55.426;37.756;2022-10-24T18:14:00;11.68;;;4.63;;
42670;SDS011;28283;55.426;37.756;2022-10-24T18:19:04;3.53;;;2.17;;
42670;SDS011;28283;55.426;37.756;2022-10-24T18:24:06;9.75;;;3.55;;
42670;SDS011;28283;55.426;37.756;2022-10-24T18:29:07;13.20;;;6.05;;
42670;SDS011;28283;55.426;37.756;2022-10-24T18:34:07;7.28;;;3.45;;
42670;SDS011;28283;55.426;37.756;2022-10-24T18:39:08;6.43;;;3.60;;
42670;SDS011;28283;55.426;37.756;2022-10-24T18:49:35;10.05;;;4.53;;
42670;SDS011;28283;55.426;37.756;2022-10-24T18:54:38;13.18;;;3.85;;
42670;SDS011;28283;55.426;37.756;2022-10-24T18:59:45;10.82;;;4.63;;
42670;SDS011;28283;55.426;37.756;2022-10-24T19:04:46;11.40;;;3.95;;
42670;SDS011;28283;55.426;37.756;2022-10-24T19:10:00;10.38;;;4.68;;
42670;SDS011;28283;55.426;37.756;2022-10-24T19:15:01;7.18;;;3.97;;
42670;SDS011;28283;55.426;37.756;2022-10-24T19:20:02;10.27;;;3.40;;
42670;SDS011;28283;55.426;37.756;2022-10-24T19:30:04;12.10;;;5.07;;
42670;SDS011;28283;55.426;37.756;2022-10-24T19:40:06;15.30;;;5.07;;
42670;SDS011;28283;55.426;37.756;2022-10-24T19:45:08;4.05;;;3.25;;
42670;SDS011;28283;55.426;37.756;2022-10-24T19:50:09;8.65;;;3.90;;
42670;SDS011;28283;55.426;37.756;2022-10-24T19:55:11;8.93;;;4.50;;
42670;SDS011;28283;55.426;37.756;2022-10-24T20:00:12;10.27;;;5.18;;
42670;SDS011;28283;55.426;37.756;2022-10-24T20:05:13;7.38;;;3.85;;
42670;SDS011;28283;55.426;37.756;2022-10-24T20:10:14;5.80;;;3.65;;
42670;SDS011;28283;55.426;37.756;2022-10-24T20:15:14;6.68;;;3.40;;
42670;SDS011;28283;55.426;37.756;2022-10-24T20:20:15;11.65;;;4.85;;
42670;SDS011;28283;55.426;37.756;2022-10-24T20:25:18;9.25;;;4.93;;
42670;SDS011;28283;55.426;37.756;2022-10-24T20:30:19;15.43;;;6.03;;
42670;SDS011;28283;55.426;37.756;2022-10-24T20:35:20;13.77;;;6.32;;
42670;SDS011;28283;55.426;37.756;2022-10-24T20:40:21;14.07;;;6.60;;
42670;SDS011;28283;55.426;37.756;2022-10-24T20:45:22;10.77;;;5.30;;
42670;SDS011;28283;55.426;37.756;2022-10-24T20:50:23;11.50;;;4.15;;
42670;SDS011;28283;55.426;37.756;2022-10-24T20:55:24;11.05;;;5.88;;
42670;SDS011;28283;55.426;37.756;2022-10-24T21:00:24;11.20;;;5.25;;
42670;SDS011;28283;55.426;37.756;2022-10-24T21:05:25;13.48;;;5.47;;
42670;SDS011;28283;55.426;37.756;2022-10-24T21:10:28;15.38;;;5.78;;
42670;SDS011;28283;55.426;37.756;2022-10-24T21:15:28;13.57;;;5.80;;
42670;SDS011;28283;55.426;37.756;2022-10-24T21:20:29;11.35;;;6.50;;
42670;SDS011;28283;55.426;37.756;2022-10-24T21:25:30;12.00;;;5.85;;
42670;SDS011;28283;55.426;37.756;2022-10-24T21:30:31;16.27;;;6.13;;
42670;SDS011;28283;55.426;37.756;2022-10-24T21:35:31;8.48;;;4.28;;
42670;SDS011;28283;55.426;37.756;2022-10-24T21:40:32;9.93;;;4.73;;
42670;SDS011;28283;55.426;37.756;2022-10-24T21:45:33;8.57;;;5.50;;
42670;SDS011;28283;55.426;37.756;2022-10-24T21:50:33;8.73;;;5.28;;
42670;SDS011;28283;55.426;37.756;2022-10-24T21:55:34;7.05;;;4.70;;
42670;SDS011;28283;55.426;37.756;2022-10-24T22:00:35;8.48;;;4.57;;
42670;SDS011;28283;55.426;37.756;2022-10-24T22:05:35;8.30;;;5.25;;
42670;SDS011;28283;55.426;37.756;2022-10-24T22:10:36;14.45;;;5.57;;
42670;SDS011;28283;55.426;37.756;2022-10-24T22:15:36;8.77;;;4.82;;
42670;SDS011;28283;55.426;37.756;2022-10-24T22:20:37;12.77;;;6.30;;
42670;SDS011;28283;55.426;37.756;2022-10-24T22:25:39;10.25;;;7.03;;
42670;SDS011;28283;55.426;37.756;2022-10-24T22:35:41;16.83;;;6.90;;
42670;SDS011;28283;55.426;37.756;2022-10-24T22:40:44;11.02;;;5.88;;
42670;SDS011;28283;55.426;37.756;2022-10-24T22:45:58;7.47;;;4.82;;
42670;SDS011;28283;55.426;37.756;2022-10-24T22:51:22;11.18;;;5.35;;
42670;SDS011;28283;55.426;37.756;2022-10-24T22:56:23;8.48;;;4.93;;
42670;SDS011;28283;55.426;37.756;2022-10-24T23:07:07;12.15;;;5.50;;
42670;SDS011;28283;55.426;37.756;2022-10-24T23:12:09;11.25;;;5.07;;
42670;SDS011;28283;55.426;37.756;2022-10-24T23:17:27;9.32;;;4.57;;
42670;SDS011;28283;55.426;37.756;2022-10-24T23:22:29;9.40;;;5.32;;
42670;SDS011;28283;55.426;37.756;2022-10-24T23:27:35;9.45;;;5.13;;
42670;SDS011;28283;55.426;37.756;2022-10-24T23:32:38;10.90;;;5.00;;
42670;SDS011;28283;55.426;37.756;2022-10-24T23:37:45;8.25;;;4.80;;
42670;SDS011;28283;55.426;37.756;2022-10-24T23:42:48;8.43;;;4.68;;
42670;SDS011;28283;55.426;37.756;2022-10-24T23:53:47;13.70;;;5.53;;
42670;SDS011;28283;55.426;37.756;2022-10-24T23:58:52;9.00;;;4.80;;
